キンシャサ の空港の天気 - METARとTAF

キンシャサ/ヌジリ国際空港 ( FZAA / FIH ) - コンゴ民主共和国 キンシャサ
飛行場実況気象(Metar)
観測時間12/14 07:00 WAT (12/14 06:00 UTC)
風向・風速静穏 0m/s
視程6000m
天気現象
全天の4割程度の雲 雲底高度 430m
少しの雲 雲底高度 910m
全天の8割程度の雲 雲底高度 3050m
気温25℃
湿度83%
気圧1015hPa
METARFZAA 140600Z 00000KT 6000 SCT014 FEW030CB BKN100 25/22 Q1015 BECMG 4000 BR
過去の天気等 Google飛行場航空写真 Wunderground天気予報

過去48時間のMETAR

飛行場予報(TAF)
発表時間: 12/14 06:00 WAT (12/14 05:00 UTC)
予報対象時間: 14日7時 WAT ~ 15日13時 WAT
風向・風速南西 2m/s
視程8000m
全天の4割程度の雲 雲底高度 490m
14日11時 WAT ~ 14日13時 WAT に徐々に
風向・風速北西 5m/s
少しの積乱雲 雲底高度 910m
14日16時 WAT ~ 14日20時 WAT に 確率 30% で一時的に
天気現象
14日21時 WAT ~ 14日23時 WAT に徐々に
全天の4割程度の雲 雲底高度 550m
15日7時 WAT ~ 15日9時 WAT に徐々に
全天の8割程度の雲 雲底高度 490m
TAF FZAA 140500Z 1406/1512 22004KT 8000 SCT016
BECMG 1410/1412 32010KTSCT024 FEW030CB
PROB30 TEMPO 1415/1419 TS
BECMG 1420/1422 2400KT SCT018
BECMG 1506/1508 BKN016